WZZ2927 LUKK-UKOO
Flight info
| Callsign | WZZ2927 |
|---|---|
| Flight time | 0h 27m |
| Altitude | 13000 |
| Route | SURAP |
| Aircraft | A321/M-SDE3FGHIRWY/LB1 |
Departure
| Time | 2026-04-23 19:03 |
|---|---|
| Airport | Chişinău International Airport (LUKK) |
Arrival
| Time | 2026-04-23 19:31 |
|---|---|
| Airport | Odesa International Airport (UKOO) |
| Time | Latitude | Longitude | Altitude | Speed | Heading |
|---|---|---|---|---|---|
| 2026-04-23 18:42 | 46.93371 | 28.93545 | 408 ft | 0 kts | 6° |
| 2026-04-23 18:58 | 46.93407 | 28.93544 | 405 ft | 7 kts | 337° |
| 2026-04-23 18:59 | 46.93401 | 28.93493 | 408 ft | 6 kts | 208° |
| 2026-04-23 18:59 | 46.93354 | 28.93480 | 408 ft | 7 kts | 188° |
| 2026-04-23 18:59 | 46.93302 | 28.93469 | 406 ft | 8 kts | 187° |
| 2026-04-23 18:59 | 46.93236 | 28.93457 | 409 ft | 11 kts | 187° |
| 2026-04-23 19:00 | 46.93166 | 28.93455 | 411 ft | 9 kts | 159° |
| 2026-04-23 19:00 | 46.93142 | 28.93539 | 411 ft | 11 kts | 96° |
| 2026-04-23 19:00 | 46.93130 | 28.93686 | 409 ft | 18 kts | 97° |
| 2026-04-23 19:00 | 46.93111 | 28.93904 | 407 ft | 24 kts | 97° |
| 2026-04-23 19:01 | 46.93091 | 28.94150 | 405 ft | 25 kts | 97° |
| 2026-04-23 19:01 | 46.93069 | 28.94408 | 406 ft | 25 kts | 97° |
| 2026-04-23 19:01 | 46.93048 | 28.94662 | 408 ft | 25 kts | 97° |
| 2026-04-23 19:01 | 46.93026 | 28.94913 | 410 ft | 24 kts | 97° |
| 2026-04-23 19:02 | 46.93015 | 28.95039 | 410 ft | 13 kts | 97° |
| 2026-04-23 19:02 | 46.92943 | 28.95113 | 409 ft | 12 kts | 179° |
| 2026-04-23 19:02 | 46.92857 | 28.95119 | 409 ft | 12 kts | 176° |
| 2026-04-23 19:02 | 46.92820 | 28.95074 | 409 ft | 8 kts | 269° |
| 2026-04-23 19:03 | 46.92817 | 28.94922 | 409 ft | 37 kts | 268° |
| 2026-04-23 19:03 | 46.92802 | 28.94176 | 408 ft | 107 kts | 268° |
| 2026-04-23 19:03 | 46.92772 | 28.92804 | 433 ft | 158 kts | 270° |
| 2026-04-23 19:03 | 46.92728 | 28.91248 | 1186 ft | 149 kts | 274° |
| 2026-04-23 19:04 | 46.92695 | 28.89742 | 1914 ft | 147 kts | 276° |
| 2026-04-23 19:04 | 46.92663 | 28.88195 | 2335 ft | 160 kts | 277° |
| 2026-04-23 19:04 | 46.92643 | 28.86478 | 2640 ft | 176 kts | 277° |
| 2026-04-23 19:04 | 46.92622 | 28.84637 | 2919 ft | 192 kts | 277° |
| 2026-04-23 19:05 | 46.92596 | 28.82579 | 3127 ft | 212 kts | 276° |
| 2026-04-23 19:05 | 46.92514 | 28.80288 | 3274 ft | 245 kts | 264° |
| 2026-04-23 19:05 | 46.91891 | 28.77862 | 3876 ft | 262 kts | 249° |
| 2026-04-23 19:05 | 46.90913 | 28.75571 | 4701 ft | 269 kts | 239° |
| 2026-04-23 19:06 | 46.89609 | 28.73567 | 5450 ft | 280 kts | 226° |
| 2026-04-23 19:06 | 46.87931 | 28.72025 | 6219 ft | 291 kts | 209° |
| 2026-04-23 19:06 | 46.85986 | 28.71186 | 7008 ft | 299 kts | 193° |
| 2026-04-23 19:06 | 46.83891 | 28.71072 | 7796 ft | 306 kts | 178° |
| 2026-04-23 19:07 | 46.81787 | 28.71800 | 8438 ft | 317 kts | 159° |
| 2026-04-23 19:07 | 46.79868 | 28.73448 | 9123 ft | 324 kts | 140° |
| 2026-04-23 19:07 | 46.78314 | 28.75839 | 9819 ft | 326 kts | 122° |
| 2026-04-23 19:07 | 46.77282 | 28.78763 | 10483 ft | 324 kts | 103° |
| 2026-04-23 19:08 | 46.76635 | 28.81985 | 10782 ft | 342 kts | 100° |
| 2026-04-23 19:08 | 46.75983 | 28.85435 | 10933 ft | 364 kts | 100° |
| 2026-04-23 19:08 | 46.75288 | 28.89089 | 11180 ft | 381 kts | 101° |
| 2026-04-23 19:08 | 46.74809 | 28.91561 | 11529 ft | 386 kts | 101° |
| 2026-04-23 19:09 | 46.73813 | 28.96584 | 12381 ft | 392 kts | 102° |
| 2026-04-23 19:09 | 46.73041 | 29.00405 | 12721 ft | 395 kts | 102° |
| 2026-04-23 19:09 | 46.72184 | 29.04247 | 12797 ft | 408 kts | 110° |
| 2026-04-23 19:09 | 46.70924 | 29.08005 | 12791 ft | 415 kts | 114° |
| 2026-04-23 19:10 | 46.69621 | 29.11769 | 12795 ft | 417 kts | 114° |
| 2026-04-23 19:10 | 46.68757 | 29.14268 | 12791 ft | 417 kts | 114° |
| 2026-04-23 19:10 | 46.67184 | 29.19402 | 12788 ft | 414 kts | 106° |
| 2026-04-23 19:10 | 46.66582 | 29.22032 | 12791 ft | 412 kts | 103° |
| 2026-04-23 19:11 | 46.65829 | 29.26049 | 12794 ft | 410 kts | 99° |
| 2026-04-23 19:11 | 46.64984 | 29.31402 | 12789 ft | 410 kts | 98° |
| 2026-04-23 19:11 | 46.64362 | 29.35452 | 12794 ft | 410 kts | 98° |
| 2026-04-23 19:11 | 46.63714 | 29.39486 | 12796 ft | 411 kts | 99° |
| 2026-04-23 19:12 | 46.63263 | 29.42164 | 12787 ft | 411 kts | 100° |
| 2026-04-23 19:12 | 46.62308 | 29.47553 | 12791 ft | 412 kts | 101° |
| 2026-04-23 19:12 | 46.61820 | 29.50220 | 12792 ft | 412 kts | 101° |
| 2026-04-23 19:12 | 46.61077 | 29.54238 | 12796 ft | 411 kts | 101° |
| 2026-04-23 19:13 | 46.60330 | 29.58253 | 12816 ft | 411 kts | 101° |
| 2026-04-23 19:13 | 46.59341 | 29.63568 | 12812 ft | 411 kts | 101° |
| 2026-04-23 19:13 | 46.58596 | 29.67585 | 12801 ft | 412 kts | 101° |
| 2026-04-23 19:13 | 46.57857 | 29.71604 | 12803 ft | 411 kts | 101° |
| 2026-04-23 19:14 | 46.57369 | 29.74268 | 12797 ft | 411 kts | 101° |
| 2026-04-23 19:14 | 46.56635 | 29.78278 | 12792 ft | 412 kts | 101° |
| 2026-04-23 19:14 | 46.55894 | 29.82297 | 12790 ft | 412 kts | 101° |
| 2026-04-23 19:14 | 46.55152 | 29.86314 | 12789 ft | 412 kts | 101° |
| 2026-04-23 19:15 | 46.54475 | 29.91694 | 12786 ft | 405 kts | 89° |
| 2026-04-23 19:15 | 46.54409 | 29.94442 | 12783 ft | 403 kts | 85° |
| 2026-04-23 19:15 | 46.54361 | 29.98516 | 12805 ft | 404 kts | 86° |
| 2026-04-23 19:15 | 46.54306 | 30.02596 | 12796 ft | 404 kts | 86° |
| 2026-04-23 19:16 | 46.54244 | 30.06626 | 12787 ft | 405 kts | 86° |
| 2026-04-23 19:16 | 46.54179 | 30.10713 | 12811 ft | 405 kts | 86° |
| 2026-04-23 19:16 | 46.54112 | 30.14802 | 12810 ft | 405 kts | 86° |
| 2026-04-23 19:17 | 46.53977 | 30.22982 | 12805 ft | 405 kts | 86° |
| 2026-04-23 19:17 | 46.53907 | 30.27052 | 12790 ft | 400 kts | 86° |
| 2026-04-23 19:17 | 46.53833 | 30.31008 | 12681 ft | 383 kts | 86° |
| 2026-04-23 19:17 | 46.53761 | 30.34796 | 12485 ft | 370 kts | 86° |
| 2026-04-23 19:18 | 46.53442 | 30.38449 | 12076 ft | 372 kts | 101° |
| 2026-04-23 19:18 | 46.52467 | 30.41928 | 11632 ft | 374 kts | 118° |
| 2026-04-23 19:18 | 46.50876 | 30.44904 | 11154 ft | 374 kts | 136° |
| 2026-04-23 19:18 | 46.48808 | 30.47117 | 10845 ft | 364 kts | 154° |
| 2026-04-23 19:19 | 46.44235 | 30.49463 | 10594 ft | 337 kts | 166° |
| 2026-04-23 19:19 | 46.42026 | 30.50436 | 10436 ft | 328 kts | 166° |
| 2026-04-23 19:20 | 46.37695 | 30.52330 | 9742 ft | 324 kts | 166° |
| 2026-04-23 19:20 | 46.35575 | 30.53251 | 9375 ft | 322 kts | 166° |
| 2026-04-23 19:20 | 46.33433 | 30.54182 | 9011 ft | 321 kts | 166° |
| 2026-04-23 19:20 | 46.31303 | 30.55107 | 8653 ft | 319 kts | 166° |
| 2026-04-23 19:21 | 46.29186 | 30.56024 | 8297 ft | 317 kts | 166° |
| 2026-04-23 19:21 | 46.25005 | 30.57840 | 7743 ft | 307 kts | 166° |
| 2026-04-23 19:21 | 46.22989 | 30.58718 | 7622 ft | 298 kts | 166° |
| 2026-04-23 19:22 | 46.21035 | 30.59568 | 7489 ft | 289 kts | 166° |
| 2026-04-23 19:22 | 46.19135 | 30.60391 | 7303 ft | 282 kts | 166° |
| 2026-04-23 19:22 | 46.15424 | 30.61986 | 6725 ft | 279 kts | 166° |
| 2026-04-23 19:23 | 46.13574 | 30.62807 | 6390 ft | 278 kts | 160° |
| 2026-04-23 19:23 | 46.12005 | 30.64355 | 6077 ft | 274 kts | 126° |
| 2026-04-23 19:23 | 46.11194 | 30.66746 | 5720 ft | 262 kts | 93° |
| 2026-04-23 19:24 | 46.11756 | 30.71626 | 5010 ft | 246 kts | 66° |
| 2026-04-23 19:24 | 46.12252 | 30.73979 | 4709 ft | 245 kts | 66° |
| 2026-04-23 19:24 | 46.13841 | 30.77961 | 4025 ft | 223 kts | 26° |
| 2026-04-23 19:25 | 46.16677 | 30.78482 | 3281 ft | 207 kts | 341° |
| 2026-04-23 19:25 | 46.19459 | 30.77282 | 2507 ft | 210 kts | 341° |
| 2026-04-23 19:26 | 46.22254 | 30.76085 | 2007 ft | 209 kts | 341° |
| 2026-04-23 19:26 | 46.23660 | 30.75483 | 2010 ft | 211 kts | 341° |
| 2026-04-23 19:27 | 46.26463 | 30.74282 | 2010 ft | 212 kts | 341° |
| 2026-04-23 19:27 | 46.30554 | 30.72527 | 2007 ft | 196 kts | 341° |
| 2026-04-23 19:28 | 46.33111 | 30.71430 | 1896 ft | 180 kts | 340° |
| 2026-04-23 19:28 | 46.35288 | 30.70495 | 1493 ft | 147 kts | 340° |
| 2026-04-23 19:29 | 46.36237 | 30.70086 | 1301 ft | 141 kts | 340° |
| 2026-04-23 19:29 | 46.38113 | 30.69276 | 890 ft | 140 kts | 341° |
| 2026-04-23 19:30 | 46.39996 | 30.68458 | 510 ft | 143 kts | 341° |
| 2026-04-23 19:30 | 46.40952 | 30.68052 | 325 ft | 144 kts | 341° |
| 2026-04-23 19:30 | 46.42681 | 30.67310 | 171 ft | 92 kts | 343° |
| 2026-04-23 19:31 | 46.43133 | 30.67115 | 173 ft | 49 kts | 343° |
| 2026-04-23 19:31 | 46.43437 | 30.66984 | 175 ft | 44 kts | 343° |
| 2026-04-23 19:31 | 46.43712 | 30.66864 | 173 ft | 38 kts | 343° |
| 2026-04-23 19:31 | 46.43860 | 30.66803 | 172 ft | 11 kts | 344° |
| 2026-04-23 19:32 | 46.43909 | 30.66862 | 175 ft | 11 kts | 72° |
| 2026-04-23 19:32 | 46.43931 | 30.66970 | 173 ft | 12 kts | 73° |
| 2026-04-23 19:32 | 46.43956 | 30.67089 | 173 ft | 13 kts | 73° |
| 2026-04-23 19:32 | 46.43982 | 30.67218 | 173 ft | 14 kts | 73° |
| 2026-04-23 19:33 | 46.44022 | 30.67316 | 174 ft | 11 kts | 24° |
| 2026-04-23 19:33 | 46.44099 | 30.67303 | 173 ft | 12 kts | 349° |
| 2026-04-23 19:33 | 46.44175 | 30.67212 | 173 ft | 6 kts | 260° |
| 2026-04-23 19:34 | 46.44171 | 30.67178 | 173 ft | 1 kts | 260° |
| 2026-04-23 19:34 | 46.44170 | 30.67177 | 173 ft | 0 kts | 260° |